AR73 weather

Piggott Community Hospital Heliport
Piggott, Arkansas, United States

Public forecast

Using degrees Fahrenheit for public forecast. Weather courtesy of forecast.io.

Closest aviation weather report (METAR) to Piggott Community Hospital Heliport

Closest report is Kennett Memorial Airport, 12.7 nm (23.5 km) SE. Retrieved 2020/01/27 21:35 UTC (0 seconds ago):

KTKX 272135Z AUTO 20004KT 10SM CLR 14/04 A2998 RMK AO2

Closest aviation forecast (TAF) to Piggott Community Hospital Heliport

Closest forecast is Jonesboro Municipal Airport, 39.8 nm (73.8 km) SSW. Retrieved 2020/01/27 18:22 UTC (3 hours ago):

TAF KJBR 271720Z 2718/2818 VRB03KT P6SM FEW250 FM281100 05006KT P6SM BKN035 FM281600 05007KT P6SM OVC025